Time;durP1;ratioP1;P1;durP2;ratioP2;P2;SDS_P1;SDS_P2;PMS_P1;PMS_P2;Temp;Humidity;BMP_temperature;BMP_pressure;BME280_temperature;BME280_humidity;BME280_pressure;Samples;Min_cycle;Max_cycle;Signal;HPM_P1;HPM_P2
2022/07/27 00:01:16;;;;;;;13.68;8.88;;;;;;;25.83;59.10;98201.44;5099220;28;20100;-95
2022/07/27 00:03:44;;;;;;;9.25;8.20;;;;;;;25.80;59.83;98192.69;5102188;28;20033;-93
2022/07/27 00:06:11;;;;;;;12.13;8.73;;;;;;;25.75;60.74;98185.00;5103553;28;20054;-93
2022/07/27 00:08:36;;;;;;;11.80;9.48;;;;;;;25.82;61.36;98185.22;5098519;28;20062;-94
2022/07/27 00:11:03;;;;;;;10.43;9.27;;;;;;;25.89;61.88;98194.53;5103593;28;20404;-94
2022/07/27 00:13:29;;;;;;;9.85;8.85;;;;;;;25.88;61.85;98194.69;5099323;28;20043;-95
2022/07/27 00:15:54;;;;;;;11.88;8.98;;;;;;;25.94;61.42;98189.50;5102572;28;20180;-93
2022/07/27 00:18:21;;;;;;;12.50;8.88;;;;;;;25.91;61.85;98178.91;5100889;28;20048;-94
2022/07/27 00:20:48;;;;;;;11.30;8.93;;;;;;;25.83;61.60;98166.03;5100646;28;20043;-95
2022/07/27 00:23:14;;;;;;;13.20;8.45;;;;;;;26.00;61.13;98188.00;5101544;28;20047;-94
2022/07/27 00:25:39;;;;;;;11.93;9.30;;;;;;;25.95;60.17;98168.56;5102145;28;20044;-94
2022/07/27 00:28:05;;;;;;;11.65;8.18;;;;;;;25.87;59.13;98176.59;5097734;28;20512;-94
2022/07/27 00:30:31;;;;;;;10.85;9.07;;;;;;;25.88;59.17;98181.94;5099293;28;20097;-92
2022/07/27 00:32:57;;;;;;;11.48;8.70;;;;;;;25.90;59.13;98185.38;5099489;28;20047;-92
2022/07/27 00:35:24;;;;;;;11.55;8.80;;;;;;;25.75;59.37;98189.59;5103526;28;20554;-93
2022/07/27 00:37:51;;;;;;;10.63;8.35;;;;;;;25.66;59.95;98187.78;5102982;28;20105;-94
2022/07/27 00:40:17;;;;;;;10.07;8.55;;;;;;;25.48;61.29;98177.69;5107852;28;20404;-95
2022/07/27 00:42:43;;;;;;;12.63;9.27;;;;;;;25.52;62.92;98184.53;5103043;28;20126;-94
2022/07/27 00:45:10;;;;;;;11.32;9.15;;;;;;;25.45;64.19;98172.53;5098845;28;20131;-94
2022/07/27 00:47:36;;;;;;;12.38;9.82;;;;;;;25.49;66.27;98189.44;5102912;28;20488;-93
2022/07/27 00:50:03;;;;;;;16.05;10.15;;;;;;;25.52;66.49;98187.25;5103126;28;20105;-94
2022/07/27 00:52:32;;;;;;;14.60;10.73;;;;;;;25.60;66.23;98195.53;5097514;28;20137;-94
2022/07/27 00:54:59;;;;;;;14.38;10.32;;;;;;;25.54;66.07;98168.91;5105476;28;20035;-95
2022/07/27 00:57:27;;;;;;;11.90;10.20;;;;;;;25.58;65.75;98169.47;5109274;28;20864;-95
2022/07/27 00:59:56;;;;;;;12.80;10.00;;;;;;;25.52;65.99;98165.47;5106319;28;20400;-94
2022/07/27 01:02:22;;;;;;;13.20;9.55;;;;;;;25.63;66.23;98172.56;5105699;28;20037;-96
2022/07/27 01:04:48;;;;;;;12.13;9.65;;;;;;;25.51;66.36;98152.03;5103521;28;20072;-94
2022/07/27 01:07:14;;;;;;;12.63;9.70;;;;;;;25.45;66.46;98139.00;5100752;28;20039;-94
2022/07/27 01:12:36;;;;;;;11.85;9.32;;;;;;;25.51;67.07;98154.75;5104353;27;21326;-95
2022/07/27 01:15:02;;;;;;;18.50;10.38;;;;;;;25.50;67.79;98158.47;5071651;28;20076;-96
2022/07/27 01:17:29;;;;;;;13.25;10.35;;;;;;;25.45;68.02;98145.31;5071428;28;20047;-94
2022/07/27 01:19:55;;;;;;;13.38;10.20;;;;;;;25.47;68.93;98147.88;5070549;28;20037;-93
2022/07/27 01:22:23;;;;;;;14.20;11.20;;;;;;;25.37;68.97;98128.88;5065933;28;20506;-94
2022/07/27 01:24:49;;;;;;;13.07;10.55;;;;;;;25.36;69.92;98125.28;5070404;28;20071;-94
2022/07/27 01:27:15;;;;;;;16.35;10.98;;;;;;;25.40;69.38;98139.47;5069939;28;20064;-94
2022/07/27 01:29:41;;;;;;;16.00;10.40;;;;;;;25.38;69.38;98138.75;5070418;28;20076;-95
2022/07/27 01:32:07;;;;;;;13.88;10.32;;;;;;;25.31;69.85;98146.69;5067817;28;20719;-94
2022/07/27 01:34:33;;;;;;;13.30;11.00;;;;;;;25.07;70.68;98117.25;5070660;28;20037;-94
2022/07/27 01:36:59;;;;;;;14.02;10.38;;;;;;;25.11;71.39;98137.72;5069731;28;20094;-94
2022/07/27 01:39:28;;;;;;;13.40;11.55;;;;;;;25.08;72.30;98143.44;5069914;28;20106;-94
2022/07/27 01:41:54;;;;;;;14.73;11.82;;;;;;;25.07;72.62;98149.00;5070478;28;20143;-96
2022/07/27 01:44:19;;;;;;;15.60;11.10;;;;;;;24.90;73.35;98128.91;5070389;28;20124;-95
2022/07/27 01:46:45;;;;;;;12.77;10.57;;;;;;;24.87;73.45;98126.47;5070146;28;20044;-93
2022/07/27 01:49:11;;;;;;;16.90;10.75;;;;;;;24.86;74.45;98132.91;5069904;28;20091;-94
2022/07/27 01:51:37;;;;;;;15.00;12.27;;;;;;;24.79;75.00;98119.06;5070206;28;20040;-94
2022/07/27 01:54:04;;;;;;;14.23;11.27;;;;;;;24.82;75.38;98120.63;5069498;28;20375;-94
2022/07/27 01:56:32;;;;;;;14.35;11.40;;;;;;;24.78;74.95;98115.47;5069529;28;20111;-95
2022/07/27 01:58:58;;;;;;;14.57;11.57;;;;;;;24.75;75.59;98126.63;5070766;28;20128;-95
2022/07/27 02:01:24;;;;;;;14.63;11.55;;;;;;;24.68;76.20;98116.47;5070944;28;20047;-94
2022/07/27 02:03:50;;;;;;;15.25;11.77;;;;;;;24.66;76.75;98110.34;5070990;28;20068;-95
2022/07/27 02:06:16;;;;;;;14.57;12.02;;;;;;;24.72;77.30;98115.19;5071039;28;20128;-94
2022/07/27 02:08:42;;;;;;;17.33;12.07;;;;;;;24.72;77.56;98112.47;5071099;28;20063;-96
2022/07/27 02:14:09;;;;;;;15.50;12.00;;;;;;;24.67;77.62;98117.50;5102067;27;20389;-94
2022/07/27 02:16:35;;;;;;;14.07;11.88;;;;;;;24.54;77.73;98106.94;5098204;28;20040;-94
2022/07/27 02:19:01;;;;;;;18.02;12.00;;;;;;;24.48;77.90;98107.47;5099421;28;20553;-95
2022/07/27 02:21:26;;;;;;;15.00;12.23;;;;;;;24.43;78.46;98110.63;5094831;28;20067;-94
2022/07/27 02:23:52;;;;;;;18.45;12.02;;;;;;;24.32;79.02;98098.06;5099886;28;20045;-94
2022/07/27 02:26:18;;;;;;;15.63;12.05;;;;;;;24.29;78.69;98103.81;5094051;28;20131;-94
2022/07/27 02:28:44;;;;;;;17.73;12.00;;;;;;;24.36;78.56;98109.53;5097933;28;20052;-93
2022/07/27 02:31:11;;;;;;;13.43;11.93;;;;;;;24.35;79.50;98115.94;5098997;28;20439;-96
2022/07/27 02:33:37;;;;;;;18.83;12.30;;;;;;;24.24;79.48;98108.78;5098826;28;20033;-93
2022/07/27 02:36:04;;;;;;;14.35;12.02;;;;;;;24.27;80.09;98111.25;5104872;28;21153;-93
2022/07/27 02:38:29;;;;;;;18.30;12.23;;;;;;;24.06;80.47;98103.22;5100156;28;20040;-94
2022/07/27 02:40:55;;;;;;;15.35;12.18;;;;;;;24.12;79.81;98104.53;5098622;28;20046;-95
2022/07/27 02:43:21;;;;;;;16.45;12.13;;;;;;;24.19;80.04;98121.97;5092384;28;20102;-94
2022/07/27 02:45:47;;;;;;;14.20;12.35;;;;;;;23.95;81.22;98117.81;5091434;28;20539;-94
2022/07/27 02:48:14;;;;;;;17.05;12.05;;;;;;;23.80;78.30;98102.94;5098598;28;20214;-94
2022/07/27 02:50:40;;;;;;;16.88;10.77;;;;;;;23.75;73.59;98114.22;5094083;28;20123;-93
2022/07/27 02:53:06;;;;;;;18.40;11.10;;;;;;;23.82;71.27;98121.81;5100933;28;20054;-94
2022/07/27 02:55:32;;;;;;;15.90;11.07;;;;;;;23.84;70.56;98117.94;5092567;28;20835;-92
2022/07/27 02:57:58;;;;;;;15.95;11.90;;;;;;;23.94;70.63;98126.09;5095391;28;20048;-93
2022/07/27 03:00:24;;;;;;;13.60;11.60;;;;;;;23.96;71.98;98130.41;5091946;28;20044;-93
2022/07/27 03:02:50;;;;;;;13.43;11.00;;;;;;;23.86;75.73;98118.66;5097276;28;20106;-92
2022/07/27 03:05:17;;;;;;;16.05;11.60;;;;;;;23.94;76.67;98126.09;5097338;28;20465;-94
2022/07/27 03:07:43;;;;;;;16.88;12.02;;;;;;;23.93;77.42;98122.53;5103120;28;20040;-94
2022/07/27 03:10:09;;;;;;;16.40;11.88;;;;;;;23.98;77.75;98120.25;5104331;28;20494;-94
2022/07/27 03:12:35;;;;;;;15.60;12.65;;;;;;;24.02;79.03;98120.81;5091299;28;20066;-94
2022/07/27 03:15:00;;;;;;;19.60;12.80;;;;;;;24.08;79.85;98124.81;5094773;28;20444;-93
2022/07/27 03:17:26;;;;;;;14.73;12.93;;;;;;;24.04;79.95;98120.69;5092941;28;20041;-95
2022/07/27 03:19:52;;;;;;;16.75;12.75;;;;;;;23.97;80.60;98117.69;5096373;28;20048;-96
2022/07/27 03:22:19;;;;;;;18.30;12.80;;;;;;;23.95;81.25;98133.25;5092780;28;20039;-94
2022/07/27 03:24:45;;;;;;;15.55;12.13;;;;;;;23.89;81.55;98126.53;5089101;28;20385;-92
2022/07/27 03:27:12;;;;;;;15.10;11.90;;;;;;;23.85;80.77;98125.06;5084254;28;20119;-94
2022/07/27 03:29:38;;;;;;;17.00;12.25;;;;;;;23.90;79.53;98128.25;5082126;28;20036;-94
2022/07/27 03:32:04;;;;;;;15.88;11.65;;;;;;;23.91;78.88;98132.66;5082410;28;20062;-93
2022/07/27 03:34:30;;;;;;;16.48;11.90;;;;;;;23.96;79.20;98143.09;5087509;28;20044;-95
2022/07/27 03:36:56;;;;;;;16.90;12.38;;;;;;;23.80;79.85;98121.94;5077427;28;20099;-96
2022/07/27 03:39:23;;;;;;;17.98;12.55;;;;;;;23.80;80.73;98129.22;5077185;28;20417;-93
2022/07/27 03:41:49;;;;;;;14.90;11.55;;;;;;;23.60;79.39;98128.31;5088270;28;20045;-94
2022/07/27 03:44:15;;;;;;;16.38;12.20;;;;;;;23.52;79.54;98138.00;5082917;28;20136;-93
2022/07/27 03:46:40;;;;;;;15.95;12.07;;;;;;;23.37;79.92;98132.09;5088954;28;20036;-92
2022/07/27 03:49:06;;;;;;;18.45;12.10;;;;;;;23.34;79.41;98129.66;5089089;28;20041;-96
2022/07/27 03:51:32;;;;;;;14.52;12.07;;;;;;;23.38;78.88;98119.41;5082545;28;20036;-93
2022/07/27 03:53:58;;;;;;;13.50;12.10;;;;;;;23.39;78.79;98121.09;5095836;28;20127;-93
2022/07/27 03:56:25;;;;;;;18.10;12.55;;;;;;;23.44;77.55;98126.13;5087475;28;20400;-94
2022/07/27 03:58:51;;;;;;;14.27;11.35;;;;;;;23.50;77.21;98136.41;5081629;28;20516;-93
2022/07/27 04:01:16;;;;;;;14.75;11.32;;;;;;;23.45;76.75;98125.97;5076637;28;20044;-92
2022/07/27 04:03:42;;;;;;;15.68;11.38;;;;;;;23.46;76.20;98116.84;5089957;28;20079;-94
2022/07/27 04:06:08;;;;;;;13.13;11.00;;;;;;;23.47;76.20;98134.84;5094838;28;20501;-92
2022/07/27 04:08:34;;;;;;;16.08;12.02;;;;;;;23.48;76.40;98136.53;5085374;28;20048;-93
2022/07/27 04:11:00;;;;;;;14.50;10.70;;;;;;;23.43;76.18;98138.81;5076806;28;20039;-94
2022/07/27 04:13:27;;;;;;;12.77;10.93;;;;;;;23.24;76.14;98106.22;5094646;28;20500;-93
2022/07/27 04:15:54;;;;;;;14.65;11.77;;;;;;;23.23;76.42;98126.22;5097231;28;20143;-94
2022/07/27 04:18:21;;;;;;;14.90;11.48;;;;;;;23.24;76.73;98127.91;5082721;28;20428;-96
2022/07/27 04:20:47;;;;;;;13.32;10.90;;;;;;;23.21;76.13;98134.47;5076768;28;20044;-93
2022/07/27 04:23:13;;;;;;;16.90;11.93;;;;;;;23.16;75.71;98132.19;5096787;28;20489;-94
2022/07/27 04:25:38;;;;;;;15.48;12.02;;;;;;;23.14;75.01;98150.44;5084134;28;20119;-92
2022/07/27 04:28:04;;;;;;;13.98;11.90;;;;;;;23.02;73.85;98153.38;5082828;28;20490;-93
2022/07/27 04:30:32;;;;;;;14.52;10.77;;;;;;;23.05;73.50;98155.81;5081293;28;20036;-93
2022/07/27 04:32:58;;;;;;;14.60;11.80;;;;;;;22.89;73.75;98143.56;5084662;28;20040;-93
2022/07/27 04:35:24;;;;;;;14.20;11.70;;;;;;;22.79;73.99;98136.38;5078689;28;20105;-92
2022/07/27 04:37:49;;;;;;;14.25;11.05;;;;;;;22.99;73.33;98140.91;5089714;28;20517;-93
2022/07/27 04:40:15;;;;;;;18.17;11.00;;;;;;;23.15;72.20;98137.72;5079405;28;20044;-93
2022/07/27 04:42:41;;;;;;;13.32;9.93;;;;;;;23.36;71.47;98146.66;5075977;28;20127;-93
2022/07/27 04:45:07;;;;;;;15.48;10.95;;;;;;;23.43;71.29;98148.84;5078582;28;20390;-94
2022/07/27 04:47:34;;;;;;;16.23;10.40;;;;;;;23.61;69.93;98157.16;5076076;28;20052;-94
2022/07/27 04:50:01;;;;;;;15.57;10.68;;;;;;;23.57;69.50;98140.28;5089333;28;20051;-93
2022/07/27 04:52:26;;;;;;;13.00;10.43;;;;;;;23.76;69.32;98151.22;5085070;28;20048;-94
2022/07/27 04:54:53;;;;;;;12.93;10.85;;;;;;;23.82;69.70;98143.53;5077270;28;20044;-93
2022/07/27 04:57:19;;;;;;;15.80;11.20;;;;;;;23.95;68.98;98144.13;5083314;28;20120;-93
2022/07/27 04:59:45;;;;;;;16.88;11.10;;;;;;;24.06;67.84;98157.56;5082646;28;20044;-95
2022/07/27 05:02:11;;;;;;;12.95;11.20;;;;;;;24.14;67.96;98157.72;5078118;28;20401;-94
2022/07/27 05:04:38;;;;;;;14.10;11.52;;;;;;;24.19;67.12;98160.00;5083435;28;20040;-94
2022/07/27 05:07:04;;;;;;;15.07;11.05;;;;;;;24.19;68.00;98169.00;5082533;28;20044;-93
2022/07/27 05:09:30;;;;;;;15.70;11.32;;;;;;;24.28;68.02;98174.59;5078113;28;20042;-96
2022/07/27 05:11:56;;;;;;;13.38;11.02;;;;;;;24.37;67.67;98171.00;5077995;28;20046;-95
2022/07/27 05:14:22;;;;;;;15.30;11.88;;;;;;;24.65;69.00;98176.59;5074594;28;20036;-94
2022/07/27 05:16:48;;;;;;;17.88;11.55;;;;;;;25.07;67.95;98163.50;5081932;28;20094;-94
2022/07/27 05:19:13;;;;;;;15.68;11.18;;;;;;;25.33;65.47;98166.44;5081289;28;20046;-93
2022/07/27 05:21:41;;;;;;;14.88;10.88;;;;;;;25.64;63.32;98165.28;5080280;28;20044;-94
2022/07/27 05:24:06;;;;;;;16.55;11.77;;;;;;;25.91;62.30;98168.00;5087210;28;20508;-92
2022/07/27 05:26:32;;;;;;;15.55;11.00;;;;;;;25.92;61.66;98163.44;5070507;28;20041;-93
2022/07/27 05:28:58;;;;;;;16.45;10.63;;;;;;;26.03;61.35;98164.06;5078340;28;20041;-92
2022/07/27 05:31:24;;;;;;;14.05;10.90;;;;;;;26.17;59.61;98159.06;5080721;28;20050;-93
2022/07/27 05:33:50;;;;;;;15.25;11.57;;;;;;;26.31;59.96;98154.97;5088510;28;20028;-92
2022/07/27 05:36:15;;;;;;;19.42;11.68;;;;;;;26.54;60.29;98166.22;5081922;28;20064;-94
2022/07/27 05:38:42;;;;;;;31.50;12.30;;;;;;;26.33;61.11;98161.13;5079361;28;20489;-93
2022/07/27 05:41:08;;;;;;;19.85;12.75;;;;;;;26.45;62.12;98176.19;5074355;28;20047;-94
2022/07/27 05:43:34;;;;;;;20.42;12.00;;;;;;;26.38;60.98;98165.06;5080705;28;20036;-92
2022/07/27 05:46:00;;;;;;;17.05;11.63;;;;;;;26.46;60.23;98166.16;5079064;28;20127;-94
2022/07/27 05:48:26;;;;;;;21.05;11.80;;;;;;;26.39;59.92;98168.66;5080114;28;20071;-95
2022/07/27 05:50:52;;;;;;;19.23;11.75;;;;;;;26.21;60.50;98155.88;5076737;28;20557;-92
2022/07/27 05:53:18;;;;;;;17.13;12.05;;;;;;;26.25;60.17;98163.75;5077413;28;20059;-94
2022/07/27 05:55:45;;;;;;;16.60;11.80;;;;;;;26.07;60.27;98163.72;5079946;28;20040;-93
2022/07/27 05:58:11;;;;;;;16.95;11.60;;;;;;;25.82;61.26;98158.84;5077427;28;20033;-95
2022/07/27 06:00:37;;;;;;;15.48;12.32;;;;;;;26.00;60.57;98178.00;5075278;28;20405;-94
2022/07/27 06:03:03;;;;;;;18.63;11.57;;;;;;;25.97;60.70;98153.78;5077789;28;20032;-92
2022/07/27 06:05:29;;;;;;;16.13;12.15;;;;;;;25.86;61.67;98167.59;5081640;28;20405;-94
2022/07/27 06:07:58;;;;;;;18.13;13.45;;;;;;;25.73;61.42;98159.78;5077990;28;20443;-93
2022/07/27 06:10:24;;;;;;;18.45;12.45;;;;;;;25.54;62.78;98162.59;5089822;28;20048;-93
2022/07/27 06:12:51;;;;;;;16.67;12.60;;;;;;;25.55;62.72;98162.47;5078588;28;20045;-93
2022/07/27 06:15:18;;;;;;;17.35;12.80;;;;;;;25.65;62.87;98154.22;5078299;28;20124;-94
2022/07/27 06:17:45;;;;;;;19.50;13.13;;;;;;;25.80;62.51;98149.13;5081005;28;20040;-93
2022/07/27 06:20:12;;;;;;;17.50;12.55;;;;;;;25.88;62.91;98162.00;5083249;28;20504;-93
2022/07/27 06:22:46;;;;;;;17.15;12.48;;;;;;;26.07;62.53;98147.38;5085210;28;20036;-95
2022/07/27 06:25:15;;;;;;;19.65;12.65;;;;;;;26.05;61.54;98133.94;5079467;28;20052;-93
2022/07/27 06:27:41;;;;;;;18.60;13.32;;;;;;;25.95;62.72;98127.69;5090559;28;20392;-93
2022/07/27 06:30:10;;;;;;;18.58;12.40;;;;;;;25.88;63.85;98145.66;5085265;28;20040;-93
2022/07/27 06:32:36;;;;;;;19.55;13.05;;;;;;;25.87;63.88;98138.47;5078014;28;20037;-93
2022/07/27 06:35:02;;;;;;;17.05;12.88;;;;;;;25.91;63.61;98140.75;5079886;28;20036;-94
2022/07/27 06:37:30;;;;;;;17.20;12.38;;;;;;;26.05;63.96;98152.16;5083194;28;20058;-94
2022/07/27 06:39:56;;;;;;;19.38;12.75;;;;;;;26.13;62.91;98149.50;5080694;28;20460;-92
2022/07/27 06:42:21;;;;;;;15.40;12.82;;;;;;;26.25;62.50;98145.53;5077031;28;20132;-92
2022/07/27 06:44:47;;;;;;;17.23;13.02;;;;;;;26.56;61.38;98147.88;5080196;28;20551;-93
2022/07/27 06:47:15;;;;;;;15.50;12.75;;;;;;;26.73;60.79;98140.69;5071878;28;20413;-93
2022/07/27 06:49:40;;;;;;;16.95;12.50;;;;;;;26.77;60.82;98145.66;5079146;28;20043;-93
2022/07/27 06:52:06;;;;;;;14.50;12.48;;;;;;;26.70;60.88;98138.28;5085136;28;20040;-92
2022/07/27 06:54:32;;;;;;;19.98;12.55;;;;;;;26.71;61.40;98129.91;5084435;28;20044;-93
2022/07/27 06:56:58;;;;;;;14.77;12.30;;;;;;;26.73;61.12;98130.63;5081406;28;20072;-94
2022/07/27 06:59:24;;;;;;;18.58;12.23;;;;;;;26.81;60.66;98138.84;5083472;28;20056;-92
2022/07/27 07:01:51;;;;;;;16.83;12.32;;;;;;;26.66;60.61;98128.69;5086515;28;20494;-91
2022/07/27 07:04:18;;;;;;;17.90;13.20;;;;;;;26.69;60.16;98134.66;5087807;28;20489;-91
2022/07/27 07:06:44;;;;;;;15.95;12.18;;;;;;;26.61;60.95;98121.00;5083062;28;20074;-93
2022/07/27 07:09:10;;;;;;;17.13;12.48;;;;;;;26.89;59.96;98142.66;5090282;28;20044;-94
2022/07/27 07:11:36;;;;;;;16.88;12.00;;;;;;;27.03;59.97;98126.53;5085006;28;20036;-94
2022/07/27 07:14:05;;;;;;;19.08;12.23;;;;;;;27.27;58.82;98116.81;5086643;28;20146;-92
2022/07/27 07:16:31;;;;;;;14.45;11.60;;;;;;;27.54;57.84;98123.06;5085226;28;20044;-92
2022/07/27 07:18:57;;;;;;;16.95;12.52;;;;;;;27.53;58.25;98119.47;5083815;28;20049;-94
2022/07/27 07:21:24;;;;;;;14.57;11.93;;;;;;;27.89;57.22;98115.69;5086948;28;20043;-92
2022/07/27 07:23:50;;;;;;;14.57;10.70;;;;;;;28.11;56.21;98136.06;5084821;28;20111;-92
2022/07/27 07:26:16;;;;;;;16.77;11.65;;;;;;;28.32;55.73;98119.16;5088196;28;20094;-92
2022/07/27 07:28:42;;;;;;;15.23;11.75;;;;;;;28.15;55.21;98110.97;5089980;28;20045;-92
2022/07/27 07:31:08;;;;;;;15.90;11.63;;;;;;;28.01;56.63;98109.72;5082436;28;20066;-93
2022/07/27 07:33:34;;;;;;;14.57;11.30;;;;;;;27.96;56.51;98114.00;5086212;28;20036;-90
2022/07/27 07:36:01;;;;;;;13.40;11.50;;;;;;;27.97;56.51;98116.53;5091358;28;20136;-92
2022/07/27 07:38:28;;;;;;;14.30;11.10;;;;;;;28.35;56.12;98106.00;5092841;28;20119;-93
2022/07/27 07:40:54;;;;;;;16.00;12.00;;;;;;;28.56;55.36;98110.13;5084809;28;20060;-93
2022/07/27 07:43:20;;;;;;;16.23;11.27;;;;;;;28.99;54.50;98110.75;5083404;28;20041;-92
2022/07/27 07:45:46;;;;;;;14.73;10.75;;;;;;;29.23;53.40;98088.81;5085676;28;20039;-91
2022/07/27 07:48:11;;;;;;;12.73;11.18;;;;;;;29.35;52.54;98080.22;5088660;28;20085;-92
2022/07/27 07:50:37;;;;;;;16.23;11.77;;;;;;;29.42;52.43;98082.03;5088768;28;20056;-92
2022/07/27 07:53:03;;;;;;;16.55;10.88;;;;;;;29.40;51.23;98081.34;5087092;28;20386;-93
2022/07/27 07:55:31;;;;;;;12.05;10.25;;;;;;;29.54;51.15;98076.16;5082324;28;20049;-92
2022/07/27 07:57:58;;;;;;;14.07;10.43;;;;;;;29.73;49.35;98063.94;5086944;28;20044;-91
2022/07/27 08:00:24;;;;;;;16.13;10.43;;;;;;;29.42;49.88;98067.50;5089557;28;20103;-93
2022/07/27 08:02:52;;;;;;;14.82;10.35;;;;;;;29.62;50.00;98081.59;5080469;28;20705;-93
2022/07/27 08:05:19;;;;;;;12.60;10.20;;;;;;;29.84;49.49;98075.34;5084483;28;20395;-93
2022/07/27 08:07:45;;;;;;;13.30;10.38;;;;;;;30.19;48.60;98075.78;5079547;28;20289;-94
2022/07/27 08:10:12;;;;;;;11.82;10.30;;;;;;;30.42;47.18;98064.81;5084007;28;20131;-92
2022/07/27 08:12:43;;;;;;;13.03;9.53;;;;;;;30.45;46.13;98049.88;5088218;28;20051;-92
2022/07/27 08:15:11;;;;;;;12.25;9.18;;;;;;;30.19;45.09;98055.72;5084410;28;21419;-93
2022/07/27 08:17:37;;;;;;;13.80;10.17;;;;;;;29.81;48.30;98072.94;5082177;28;20459;-92
2022/07/27 08:20:03;;;;;;;13.93;10.88;;;;;;;29.47;49.93;98068.69;5080330;28;20273;-95
2022/07/27 08:22:29;;;;;;;14.50;9.70;;;;;;;29.97;47.92;98058.31;5086263;28;20172;-93
2022/07/27 08:24:55;;;;;;;11.18;9.77;;;;;;;30.46;46.53;98068.88;5084779;28;20088;-93
2022/07/27 08:27:21;;;;;;;13.18;9.02;;;;;;;30.72;43.41;98062.13;5081274;28;20063;-92
2022/07/27 08:29:48;;;;;;;10.20;7.40;;;;;;;31.02;39.60;98057.53;5079398;28;20040;-92
2022/07/27 08:32:14;;;;;;;12.57;7.85;;;;;;;31.29;38.60;98060.63;5078590;28;20097;-94
2022/07/27 08:34:40;;;;;;;10.05;8.93;;;;;;;31.50;40.64;98057.13;5077246;28;20032;-94
2022/07/27 08:37:05;;;;;;;14.98;9.45;;;;;;;31.17;41.35;98064.94;5078758;28;20386;-94
2022/07/27 08:39:31;;;;;;;12.43;9.70;;;;;;;31.43;41.56;98056.22;5082645;28;20029;-94
2022/07/27 08:42:02;;;;;;;14.00;9.70;;;;;;;31.68;43.84;98063.06;5084678;28;20488;-93
2022/07/27 08:44:29;;;;;;;13.45;10.88;;;;;;;31.17;46.06;98054.78;5078994;28;20048;-93
2022/07/27 08:46:59;;;;;;;13.85;11.27;;;;;;;31.05;47.34;98056.28;5081660;28;20051;-94
2022/07/27 08:49:27;;;;;;;14.88;11.85;;;;;;;31.33;47.30;98051.81;5083300;28;20028;-93
2022/07/27 08:51:53;;;;;;;14.03;11.73;;;;;;;31.41;47.50;98045.38;5079421;28;20044;-94
2022/07/27 08:54:19;;;;;;;13.98;12.00;;;;;;;31.03;48.95;98047.41;5081402;28;20032;-93
2022/07/27 08:56:45;;;;;;;15.38;12.27;;;;;;;31.60;48.14;98054.94;5082522;28;20467;-92
2022/07/27 08:59:11;;;;;;;15.20;12.13;;;;;;;31.72;48.05;98039.63;5085355;28;20085;-92
2022/07/27 09:01:37;;;;;;;15.38;12.48;;;;;;;31.68;48.12;98026.47;5087384;28;20052;-95
2022/07/27 09:04:06;;;;;;;18.92;12.10;;;;;;;31.32;49.29;98035.53;5082228;28;20043;-95
2022/07/27 09:06:39;;;;;;;13.93;11.77;;;;;;;31.19;49.61;98027.97;5082310;28;20052;-93
2022/07/27 09:09:05;;;;;;;13.45;12.10;;;;;;;31.45;48.32;98041.22;5080661;28;20078;-92
2022/07/27 09:11:31;;;;;;;13.88;10.95;;;;;;;31.29;48.48;98033.16;5080265;28;20551;-92
2022/07/27 09:14:00;;;;;;;15.18;11.38;;;;;;;31.61;48.13;98028.31;5084176;28;20441;-93
2022/07/27 09:16:30;;;;;;;14.07;11.35;;;;;;;32.02;47.93;98036.81;5086770;28;20044;-94
2022/07/27 09:18:58;;;;;;;15.82;12.10;;;;;;;32.45;46.97;98046.94;5084596;28;20044;-94
2022/07/27 09:21:27;;;;;;;14.70;11.80;;;;;;;32.30;47.56;98038.75;5080501;28;20041;-93
2022/07/27 09:24:04;;;;;;;15.80;12.18;;;;;;;32.05;47.81;98039.16;5078763;28;20505;-91
2022/07/27 09:26:30;;;;;;;14.40;11.82;;;;;;;32.10;47.84;98022.09;5078113;28;20067;-94
2022/07/27 09:28:58;;;;;;;17.20;11.55;;;;;;;32.34;46.57;98027.16;5083577;28;20493;-94
2022/07/27 09:31:24;;;;;;;12.38;11.15;;;;;;;32.56;47.03;98029.91;5078996;28;20040;-94
2022/07/27 09:33:51;;;;;;;13.48;12.00;;;;;;;32.23;47.07;98033.22;5081235;28;20360;-93
2022/07/27 09:36:19;;;;;;;13.48;11.95;;;;;;;32.21;46.96;98050.97;5079356;28;20629;-93
2022/07/27 09:38:54;;;;;;;15.60;11.70;;;;;;;32.32;46.71;98047.66;5081429;28;20105;-93
2022/07/27 09:41:21;;;;;;;13.90;11.60;;;;;;;32.32;46.50;98045.75;5086200;28;20145;-96
2022/07/27 09:43:49;;;;;;;14.45;11.48;;;;;;;32.40;46.40;98032.91;5086110;28;20102;-93
2022/07/27 09:46:26;;;;;;;14.60;11.32;;;;;;;32.76;45.44;98049.31;5090894;28;20097;-94
2022/07/27 09:48:52;;;;;;;14.68;11.35;;;;;;;33.03;45.32;98066.00;5081947;28;20044;-94
2022/07/27 09:51:18;;;;;;;17.17;11.00;;;;;;;33.44;44.14;98052.28;5081613;28;20037;-94
2022/07/27 09:53:44;;;;;;;15.88;11.15;;;;;;;33.64;43.39;98049.63;5088055;28;20028;-95
2022/07/27 09:56:15;;;;;;;14.05;11.90;;;;;;;33.79;42.84;98045.84;5085205;28;20048;-95
2022/07/27 09:58:43;;;;;;;18.45;12.25;;;;;;;34.08;42.03;98041.88;5079965;28;20374;-95
2022/07/27 10:01:11;;;;;;;14.85;11.40;;;;;;;34.07;41.66;98049.31;5083928;28;20044;-94
2022/07/27 10:03:38;;;;;;;14.07;11.32;;;;;;;33.34;42.46;98036.13;5092810;28;20139;-95
2022/07/27 10:06:04;;;;;;;13.82;11.40;;;;;;;33.14;42.95;98029.69;5080342;28;20358;-96
2022/07/27 10:08:32;;;;;;;13.88;11.68;;;;;;;32.24;45.02;98032.16;5080135;28;20090;-95
2022/07/27 10:10:58;;;;;;;15.27;11.77;;;;;;;31.92;46.32;98050.00;5080878;28;20068;-96
2022/07/27 10:13:25;;;;;;;16.63;12.63;;;;;;;31.90;46.74;98038.34;5084443;28;20052;-94
2022/07/27 10:15:53;;;;;;;15.32;12.68;;;;;;;32.08;46.06;98035.19;5092057;28;20078;-95
2022/07/27 10:18:28;;;;;;;16.17;12.52;;;;;;;32.45;45.92;98024.91;5080391;28;20040;-94
2022/07/27 10:20:57;;;;;;;17.98;11.80;;;;;;;33.18;43.71;98041.13;5088553;28;20041;-94
2022/07/27 10:23:27;;;;;;;16.95;11.50;;;;;;;33.60;41.58;98017.16;5086618;28;20040;-95
2022/07/27 10:26:14;;;;;;;14.63;11.35;;;;;;;33.07;42.36;98048.91;5087630;28;20044;-94
2022/07/27 10:28:50;;;;;;;13.27;11.20;;;;;;;33.54;41.34;98033.44;5096638;28;20048;-96
2022/07/27 10:31:17;;;;;;;12.25;10.93;;;;;;;33.93;40.28;98036.53;5078763;28;20047;-95
2022/07/27 10:33:44;;;;;;;12.43;10.55;;;;;;;33.79;39.94;98021.00;5077605;28;20047;-94
2022/07/27 10:36:14;;;;;;;13.10;10.57;;;;;;;33.85;39.14;98006.41;5083325;28;20134;-95
2022/07/27 10:38:48;;;;;;;14.10;10.43;;;;;;;33.58;39.88;98006.31;5082810;28;20044;-94
2022/07/27 10:41:21;;;;;;;14.65;11.23;;;;;;;33.89;39.10;98027.81;5087116;28;20040;-94
2022/07/27 10:43:50;;;;;;;13.63;10.65;;;;;;;34.02;39.33;98015.97;5088631;28;20037;-95
2022/07/27 10:46:19;;;;;;;14.82;11.27;;;;;;;33.93;38.70;98001.53;5085441;28;20036;-93
2022/07/27 10:48:46;;;;;;;12.77;10.52;;;;;;;34.11;36.50;97997.31;5083525;28;20523;-95
2022/07/27 10:51:12;;;;;;;12.45;9.70;;;;;;;34.30;35.22;97979.09;5081348;28;20042;-95
2022/07/27 10:53:39;;;;;;;13.93;10.20;;;;;;;34.29;34.35;98005.00;5083789;28;20063;-96
2022/07/27 10:56:06;;;;;;;13.03;9.67;;;;;;;34.57;34.52;98002.84;5080700;28;20135;-94
2022/07/27 10:58:50;;;;;;;11.73;9.37;;;;;;;34.11;34.37;97975.22;5081752;28;20047;-93
2022/07/27 11:01:18;;;;;;;14.90;10.50;;;;;;;34.04;35.44;97997.28;5088205;28;20285;-94
2022/07/27 11:03:49;;;;;;;13.70;9.82;;;;;;;34.63;34.98;97983.75;5083506;28;20151;-93
2022/07/27 11:06:30;;;;;;;12.52;10.20;;;;;;;34.56;34.06;97984.56;5080126;28;20094;-94
2022/07/27 11:08:58;;;;;;;11.25;9.50;;;;;;;34.74;33.75;97966.50;5081501;28;20044;-94
2022/07/27 11:11:25;;;;;;;13.18;10.48;;;;;;;34.72;34.51;97982.44;5084046;28;20045;-92
2022/07/27 11:13:56;;;;;;;14.30;10.05;;;;;;;35.09;34.22;97971.72;5080194;28;20076;-95
2022/07/27 11:16:22;;;;;;;15.40;10.70;;;;;;;35.09;34.71;97952.38;5085442;28;20068;-95
2022/07/27 11:18:57;;;;;;;13.75;10.55;;;;;;;35.20;34.61;97959.16;5082971;28;20498;-96
2022/07/27 11:21:25;;;;;;;13.30;10.00;;;;;;;35.30;34.53;97960.38;5080303;28;20067;-94
2022/07/27 11:23:53;;;;;;;12.85;10.05;;;;;;;35.22;33.68;97952.38;5078488;28;20071;-94